Terminal Aerodrome Forecast
Issued by NWS Duluth, MN

Home | Current Version | Previous Version | Text Only | Print | Product List | Glossary On
Versions: 1 2 3 4 5 6 7 8 9 10 11 12 13 14 15 16 17 18 19 20 21 22 23 24 25 26 27 28
000
FTUS43 KDLH 260200 AAB
TAFDLH
TAF AMD
KDLH 260252Z 2603/2624 02005KT 3SM BR OVC006
     FM260600 VRB03KT 3SM BR OVC007
     FM261400 07004KT P6SM OVC015
     FM261800 VRB04KT P6SM BKN050=

USA.gov is the U.S. government's official web portal to all federal, state and local government web resources and services.